Block Number:

FAA Identifier: KMEV

AWOS Phone: 775-782-6264

AWOS Radio Freq: 119.325

Current Conditions

Updated: 8:37 PM GMT on 19 Jul 2018

  • Wind Speed (2min):
    7 Knots
  • Wind Direction (2min):
    320 Degrees
  • Temperature (10min):
    35 Celsius
  • Dew Point (10min):
    -2 Celsius
  • Humidity:
    9 Percent
  • Altimeter:
    30.12 inHG
  • Density Altitude:
    7800 Feet
  • Visibility:
    10 Miles
  • Clouds:
    CLR
METAR: METAR KMEV 192035Z AUTO 32007KT 230V340 10SM CLR 35/M02 A3012 RMK AO2